sensor_id;sensor_type;location;lat;lon;timestamp;temperature;humidity
78366;HTU21D;67641;59.864;30.464;2023-07-31T00:22:59;27.39;28.44
78366;HTU21D;67641;59.864;30.464;2023-07-31T00:25:25;27.36;28.07
78366;HTU21D;67641;59.864;30.464;2023-07-31T00:27:52;27.34;28.10
78366;HTU21D;67641;59.864;30.464;2023-07-31T00:30:19;27.31;28.09
78366;HTU21D;67641;59.864;30.464;2023-07-31T00:32:46;27.31;27.53
78366;HTU21D;67641;59.864;30.464;2023-07-31T00:35:12;27.32;27.75
78366;HTU21D;67641;59.864;30.464;2023-07-31T00:37:39;27.29;28.05
78366;HTU21D;67641;59.864;30.464;2023-07-31T00:40:06;27.30;28.45
78366;HTU21D;67641;59.864;30.464;2023-07-31T00:45:04;27.26;28.36
78366;HTU21D;67641;59.864;30.464;2023-07-31T00:47:31;27.28;27.68
78366;HTU21D;67641;59.864;30.464;2023-07-31T00:49:58;27.22;27.95
78366;HTU21D;67641;59.864;30.464;2023-07-31T00:52:25;27.19;27.90
78366;HTU21D;67641;59.864;30.464;2023-07-31T00:54:52;27.19;27.69
78366;HTU21D;67641;59.864;30.464;2023-07-31T00:57:19;27.21;27.48
78366;HTU21D;67641;59.864;30.464;2023-07-31T00:59:45;27.16;27.63
78366;HTU21D;67641;59.864;30.464;2023-07-31T01:02:14;27.15;27.62
78366;HTU21D;67641;59.864;30.464;2023-07-31T01:06:19;27.02;27.33
78366;HTU21D;67641;59.864;30.464;2023-07-31T01:09:01;27.00;28.23
78366;HTU21D;67641;59.864;30.464;2023-07-31T01:11:31;27.01;28.01
78366;HTU21D;67641;59.864;30.464;2023-07-31T01:13:59;26.98;27.84
78366;HTU21D;67641;59.864;30.464;2023-07-31T01:16:26;27.01;27.39
78366;HTU21D;67641;59.864;30.464;2023-07-31T01:18:53;26.97;27.64
78366;HTU21D;67641;59.864;30.464;2023-07-31T01:27:14;26.93;28.20
78366;HTU21D;67641;59.864;30.464;2023-07-31T01:30:05;26.94;28.27
78366;HTU21D;67641;59.864;30.464;2023-07-31T01:32:40;26.92;28.53
78366;HTU21D;67641;59.864;30.464;2023-07-31T01:35:08;26.90;27.78
78366;HTU21D;67641;59.864;30.464;2023-07-31T01:37:35;26.91;28.22
78366;HTU21D;67641;59.864;30.464;2023-07-31T01:40:03;26.90;28.45
78366;HTU21D;67641;59.864;30.464;2023-07-31T01:42:30;26.82;28.66
78366;HTU21D;67641;59.864;30.464;2023-07-31T01:44:57;26.78;28.71
78366;HTU21D;67641;59.864;30.464;2023-07-31T01:49:20;26.77;28.76
78366;HTU21D;67641;59.864;30.464;2023-07-31T01:51:47;26.71;28.51
78366;HTU21D;67641;59.864;30.464;2023-07-31T01:54:14;26.76;29.00
78366;HTU21D;67641;59.864;30.464;2023-07-31T01:56:42;26.75;29.06
78366;HTU21D;67641;59.864;30.464;2023-07-31T01:59:12;26.72;29.07
78366;HTU21D;67641;59.864;30.464;2023-07-31T02:01:38;26.70;28.42
78366;HTU21D;67641;59.864;30.464;2023-07-31T02:04:05;26.70;29.16
78366;HTU21D;67641;59.864;30.464;2023-07-31T02:06:32;26.66;29.22
78366;HTU21D;67641;59.864;30.464;2023-07-31T02:11:10;26.63;28.55
78366;HTU21D;67641;59.864;30.464;2023-07-31T02:13:38;26.66;28.84
78366;HTU21D;67641;59.864;30.464;2023-07-31T02:16:05;26.67;29.02
78366;HTU21D;67641;59.864;30.464;2023-07-31T02:18:33;26.62;28.76
78366;HTU21D;67641;59.864;30.464;2023-07-31T02:20:59;26.60;29.01
78366;HTU21D;67641;59.864;30.464;2023-07-31T02:23:26;26.58;28.96
78366;HTU21D;67641;59.864;30.464;2023-07-31T02:25:53;26.60;28.83
78366;HTU21D;67641;59.864;30.464;2023-07-31T02:28:19;26.55;28.39
78366;HTU21D;67641;59.864;30.464;2023-07-31T02:33:02;26.56;28.97
78366;HTU21D;67641;59.864;30.464;2023-07-31T02:35:29;26.56;28.92
78366;HTU21D;67641;59.864;30.464;2023-07-31T02:37:55;26.52;29.45
78366;HTU21D;67641;59.864;30.464;2023-07-31T02:40:22;26.55;28.87
78366;HTU21D;67641;59.864;30.464;2023-07-31T02:42:49;26.56;29.04
78366;HTU21D;67641;59.864;30.464;2023-07-31T02:45:16;26.55;28.97
78366;HTU21D;67641;59.864;30.464;2023-07-31T02:47:43;26.51;28.37
78366;HTU21D;67641;59.864;30.464;2023-07-31T02:50:10;26.50;29.10
78366;HTU21D;67641;59.864;30.464;2023-07-31T02:52:53;26.47;28.42
78366;HTU21D;67641;59.864;30.464;2023-07-31T02:55:19;26.45;28.57
78366;HTU21D;67641;59.864;30.464;2023-07-31T02:57:46;26.48;28.99
78366;HTU21D;67641;59.864;30.464;2023-07-31T03:00:13;26.48;29.10
78366;HTU21D;67641;59.864;30.464;2023-07-31T03:02:40;26.47;29.06
78366;HTU21D;67641;59.864;30.464;2023-07-31T03:05:07;26.48;28.93
78366;HTU21D;67641;59.864;30.464;2023-07-31T03:07:34;26.45;29.68
78366;HTU21D;67641;59.864;30.464;2023-07-31T03:10:02;26.42;29.42
78366;HTU21D;67641;59.864;30.464;2023-07-31T03:14:13;26.41;29.45
78366;HTU21D;67641;59.864;30.464;2023-07-31T03:16:40;26.41;29.43
78366;HTU21D;67641;59.864;30.464;2023-07-31T03:19:07;26.42;29.26
78366;HTU21D;67641;59.864;30.464;2023-07-31T03:21:34;26.43;29.80
78366;HTU21D;67641;59.864;30.464;2023-07-31T03:24:01;26.45;29.58
78366;HTU21D;67641;59.864;30.464;2023-07-31T03:26:27;26.46;29.70
78366;HTU21D;67641;59.864;30.464;2023-07-31T03:28:56;26.48;29.46
78366;HTU21D;67641;59.864;30.464;2023-07-31T03:31:22;26.43;29.84
78366;HTU21D;67641;59.864;30.464;2023-07-31T03:36:23;26.42;30.67
78366;HTU21D;67641;59.864;30.464;2023-07-31T03:38:52;26.42;31.09
78366;HTU21D;67641;59.864;30.464;2023-07-31T03:41:20;26.48;29.68
78366;HTU21D;67641;59.864;30.464;2023-07-31T03:43:50;26.48;30.35
78366;HTU21D;67641;59.864;30.464;2023-07-31T03:46:23;26.50;30.40
78366;HTU21D;67641;59.864;30.464;2023-07-31T03:48:50;26.53;30.06
78366;HTU21D;67641;59.864;30.464;2023-07-31T03:51:17;26.56;30.56
78366;HTU21D;67641;59.864;30.464;2023-07-31T03:53:45;26.60;31.97
78366;HTU21D;67641;59.864;30.464;2023-07-31T03:57:45;26.67;32.01
78366;HTU21D;67641;59.864;30.464;2023-07-31T04:00:12;26.67;30.51
78366;HTU21D;67641;59.864;30.464;2023-07-31T04:02:40;26.70;30.69
78366;HTU21D;67641;59.864;30.464;2023-07-31T04:05:08;26.76;31.08
78366;HTU21D;67641;59.864;30.464;2023-07-31T04:07:36;26.79;31.31
78366;HTU21D;67641;59.864;30.464;2023-07-31T04:10:04;26.80;31.51
78366;HTU21D;67641;59.864;30.464;2023-07-31T04:12:31;26.85;33.30
78366;HTU21D;67641;59.864;30.464;2023-07-31T04:14:58;26.84;33.28
78366;HTU21D;67641;59.864;30.464;2023-07-31T04:19:15;26.90;33.30
78366;HTU21D;67641;59.864;30.464;2023-07-31T04:21:43;26.89;33.49
78366;HTU21D;67641;59.864;30.464;2023-07-31T04:24:11;26.95;33.47
78366;HTU21D;67641;59.864;30.464;2023-07-31T04:26:37;26.99;33.20
78366;HTU21D;67641;59.864;30.464;2023-07-31T04:29:04;27.08;33.49
78366;HTU21D;67641;59.864;30.464;2023-07-31T04:31:30;27.12;34.45
78366;HTU21D;67641;59.864;30.464;2023-07-31T04:33:57;27.13;34.81
78366;HTU21D;67641;59.864;30.464;2023-07-31T04:36:25;27.14;34.96
78366;HTU21D;67641;59.864;30.464;2023-07-31T04:41:05;27.20;35.40
78366;HTU21D;67641;59.864;30.464;2023-07-31T04:43:35;27.23;36.22
78366;HTU21D;67641;59.864;30.464;2023-07-31T04:46:01;27.24;36.71
78366;HTU21D;67641;59.864;30.464;2023-07-31T04:48:28;27.29;36.59
78366;HTU21D;67641;59.864;30.464;2023-07-31T04:50:55;27.34;35.95
78366;HTU21D;67641;59.864;30.464;2023-07-31T04:53:21;27.37;36.94
78366;HTU21D;67641;59.864;30.464;2023-07-31T04:55:50;27.42;37.39
78366;HTU21D;67641;59.864;30.464;2023-07-31T04:58:18;27.50;36.76
78366;HTU21D;67641;59.864;30.464;2023-07-31T05:02:55;27.54;37.19
78366;HTU21D;67641;59.864;30.464;2023-07-31T05:05:22;27.58;36.62
78366;HTU21D;67641;59.864;30.464;2023-07-31T05:07:48;27.59;37.21
78366;HTU21D;67641;59.864;30.464;2023-07-31T05:10:16;27.61;37.62
78366;HTU21D;67641;59.864;30.464;2023-07-31T05:12:43;27.64;36.98
78366;HTU21D;67641;59.864;30.464;2023-07-31T05:15:10;27.68;35.87
78366;HTU21D;67641;59.864;30.464;2023-07-31T05:17:37;27.71;32.40
78366;HTU21D;67641;59.864;30.464;2023-07-31T05:20:06;27.76;33.86
78366;HTU21D;67641;59.864;30.464;2023-07-31T05:25:01;27.81;30.27
78366;HTU21D;67641;59.864;30.464;2023-07-31T05:27:28;27.85;30.94
78366;HTU21D;67641;59.864;30.464;2023-07-31T05:29:54;27.90;30.90
78366;HTU21D;67641;59.864;30.464;2023-07-31T05:32:24;27.94;31.38
78366;HTU21D;67641;59.864;30.464;2023-07-31T05:34:52;27.97;29.48
78366;HTU21D;67641;59.864;30.464;2023-07-31T05:37:19;28.00;31.30
78366;HTU21D;67641;59.864;30.464;2023-07-31T05:39:47;28.03;31.33
78366;HTU21D;67641;59.864;30.464;2023-07-31T05:42:18;28.02;31.39
78366;HTU21D;67641;59.864;30.464;2023-07-31T05:46:17;28.02;30.56
78366;HTU21D;67641;59.864;30.464;2023-07-31T05:48:44;28.03;30.45
78366;HTU21D;67641;59.864;30.464;2023-07-31T05:51:10;28.10;30.60
78366;HTU21D;67641;59.864;30.464;2023-07-31T05:53:39;28.10;30.69
78366;HTU21D;67641;59.864;30.464;2023-07-31T05:56:08;28.14;31.22
78366;HTU21D;67641;59.864;30.464;2023-07-31T05:58:38;28.12;29.24
78366;HTU21D;67641;59.864;30.464;2023-07-31T06:01:04;28.13;30.61
78366;HTU21D;67641;59.864;30.464;2023-07-31T06:03:32;28.13;30.03
78366;HTU21D;67641;59.864;30.464;2023-07-31T06:07:48;28.14;29.91
78366;HTU21D;67641;59.864;30.464;2023-07-31T06:10:15;28.15;30.46
78366;HTU21D;67641;59.864;30.464;2023-07-31T06:12:43;28.18;30.87
78366;HTU21D;67641;59.864;30.464;2023-07-31T06:15:10;28.17;30.16
78366;HTU21D;67641;59.864;30.464;2023-07-31T06:17:37;28.20;30.29
78366;HTU21D;67641;59.864;30.464;2023-07-31T06:20:05;28.19;30.16
78366;HTU21D;67641;59.864;30.464;2023-07-31T06:22:33;28.20;30.61
78366;HTU21D;67641;59.864;30.464;2023-07-31T06:25:00;28.24;29.43
78366;HTU21D;67641;59.864;30.464;2023-07-31T06:28:38;28.27;29.81
78366;HTU21D;67641;59.864;30.464;2023-07-31T06:31:04;28.28;29.22
78366;HTU21D;67641;59.864;30.464;2023-07-31T06:33:31;28.29;29.69
78366;HTU21D;67641;59.864;30.464;2023-07-31T06:35:58;28.32;30.15
78366;HTU21D;67641;59.864;30.464;2023-07-31T06:38:26;28.33;30.14
78366;HTU21D;67641;59.864;30.464;2023-07-31T06:40:53;28.35;29.77
78366;HTU21D;67641;59.864;30.464;2023-07-31T06:43:20;28.38;30.06
78366;HTU21D;67641;59.864;30.464;2023-07-31T06:45:47;28.40;30.00
78366;HTU21D;67641;59.864;30.464;2023-07-31T06:48:30;28.43;29.86
78366;HTU21D;67641;59.864;30.464;2023-07-31T06:50:56;28.44;30.13
78366;HTU21D;67641;59.864;30.464;2023-07-31T06:53:23;28.43;30.71
78366;HTU21D;67641;59.864;30.464;2023-07-31T06:55:50;28.45;31.59
78366;HTU21D;67641;59.864;30.464;2023-07-31T06:58:18;28.44;32.36
78366;HTU21D;67641;59.864;30.464;2023-07-31T07:00:45;28.45;32.69
78366;HTU21D;67641;59.864;30.464;2023-07-31T07:03:11;28.45;31.93
78366;HTU21D;67641;59.864;30.464;2023-07-31T07:07:07;28.50;32.41
78366;HTU21D;67641;59.864;30.464;2023-07-31T07:09:35;28.52;31.28
78366;HTU21D;67641;59.864;30.464;2023-07-31T07:12:03;28.56;31.50
78366;HTU21D;67641;59.864;30.464;2023-07-31T07:14:30;28.62;31.63
78366;HTU21D;67641;59.864;30.464;2023-07-31T07:16:57;28.63;29.33
78366;HTU21D;67641;59.864;30.464;2023-07-31T07:19:24;28.67;30.24
78366;HTU21D;67641;59.864;30.464;2023-07-31T07:21:50;28.71;30.75
78366;HTU21D;67641;59.864;30.464;2023-07-31T07:24:17;28.73;29.96
78366;HTU21D;67641;59.864;30.464;2023-07-31T07:27:05;28.77;30.38
78366;HTU21D;67641;59.864;30.464;2023-07-31T07:29:33;28.85;30.36
78366;HTU21D;67641;59.864;30.464;2023-07-31T07:32:04;28.88;30.57
78366;HTU21D;67641;59.864;30.464;2023-07-31T07:34:30;28.92;30.38
78366;HTU21D;67641;59.864;30.464;2023-07-31T07:36:57;28.94;30.90
78366;HTU21D;67641;59.864;30.464;2023-07-31T07:39:24;28.98;30.62
78366;HTU21D;67641;59.864;30.464;2023-07-31T07:41:51;28.99;30.24
78366;HTU21D;67641;59.864;30.464;2023-07-31T07:46:57;29.03;30.42
78366;HTU21D;67641;59.864;30.464;2023-07-31T07:49:24;29.08;30.20
78366;HTU21D;67641;59.864;30.464;2023-07-31T07:51:51;29.12;31.16
78366;HTU21D;67641;59.864;30.464;2023-07-31T07:54:18;29.14;31.36
78366;HTU21D;67641;59.864;30.464;2023-07-31T07:56:46;29.15;31.09
78366;HTU21D;67641;59.864;30.464;2023-07-31T07:59:13;29.17;31.98
78366;HTU21D;67641;59.864;30.464;2023-07-31T08:01:39;29.23;32.81
78366;HTU21D;67641;59.864;30.464;2023-07-31T08:05:27;29.28;32.39
78366;HTU21D;67641;59.864;30.464;2023-07-31T08:07:54;29.30;33.60
78366;HTU21D;67641;59.864;30.464;2023-07-31T08:10:21;29.32;34.09
78366;HTU21D;67641;59.864;30.464;2023-07-31T08:12:48;29.35;33.35
78366;HTU21D;67641;59.864;30.464;2023-07-31T08:15:15;29.30;34.72
78366;HTU21D;67641;59.864;30.464;2023-07-31T08:17:42;29.30;34.76
78366;HTU21D;67641;59.864;30.464;2023-07-31T08:20:10;29.34;33.34
78366;HTU21D;67641;59.864;30.464;2023-07-31T08:25:09;29.42;35.76
78366;HTU21D;67641;59.864;30.464;2023-07-31T08:27:37;29.48;35.21
78366;HTU21D;67641;59.864;30.464;2023-07-31T08:30:05;29.53;36.43
78366;HTU21D;67641;59.864;30.464;2023-07-31T08:32:32;29.61;36.29
78366;HTU21D;67641;59.864;30.464;2023-07-31T08:34:59;29.64;35.30
78366;HTU21D;67641;59.864;30.464;2023-07-31T08:37:27;29.66;35.18
78366;HTU21D;67641;59.864;30.464;2023-07-31T08:39:55;29.68;35.87
78366;HTU21D;67641;59.864;30.464;2023-07-31T08:43:01;29.75;36.73
78366;HTU21D;67641;59.864;30.464;2023-07-31T08:45:29;29.77;37.50
78366;HTU21D;67641;59.864;30.464;2023-07-31T08:47:56;29.87;37.93
78366;HTU21D;67641;59.864;30.464;2023-07-31T08:50:26;29.88;36.14
78366;HTU21D;67641;59.864;30.464;2023-07-31T08:52:54;29.89;37.62
78366;HTU21D;67641;59.864;30.464;2023-07-31T08:55:21;29.92;37.78
78366;HTU21D;67641;59.864;30.464;2023-07-31T08:57:51;29.93;37.35
78366;HTU21D;67641;59.864;30.464;2023-07-31T09:05:16;30.00;36.82
78366;HTU21D;67641;59.864;30.464;2023-07-31T09:07:45;30.02;37.10
78366;HTU21D;67641;59.864;30.464;2023-07-31T09:10:13;30.09;38.96
78366;HTU21D;67641;59.864;30.464;2023-07-31T09:12:40;30.12;39.14
78366;HTU21D;67641;59.864;30.464;2023-07-31T09:15:09;30.20;38.11
78366;HTU21D;67641;59.864;30.464;2023-07-31T09:17:37;30.23;38.14
78366;HTU21D;67641;59.864;30.464;2023-07-31T09:21:59;30.39;36.77
78366;HTU21D;67641;59.864;30.464;2023-07-31T09:24:31;30.45;37.27
78366;HTU21D;67641;59.864;30.464;2023-07-31T09:26:59;30.55;37.17
78366;HTU21D;67641;59.864;30.464;2023-07-31T09:29:28;30.68;35.32
78366;HTU21D;67641;59.864;30.464;2023-07-31T09:31:55;30.86;34.45
78366;HTU21D;67641;59.864;30.464;2023-07-31T09:34:40;31.02;34.64
78366;HTU21D;67641;59.864;30.464;2023-07-31T09:56:49;31.39;34.78
78366;HTU21D;67641;59.864;30.464;2023-07-31T09:59:18;31.46;34.37
78366;HTU21D;67641;59.864;30.464;2023-07-31T10:03:51;31.71;34.40
78366;HTU21D;67641;59.864;30.464;2023-07-31T10:06:18;31.83;33.28
78366;HTU21D;67641;59.864;30.464;2023-07-31T10:08:47;31.92;32.83
78366;HTU21D;67641;59.864;30.464;2023-07-31T10:11:17;32.07;32.15
78366;HTU21D;67641;59.864;30.464;2023-07-31T10:13:44;32.22;32.39
78366;HTU21D;67641;59.864;30.464;2023-07-31T10:16:12;32.47;30.76
78366;HTU21D;67641;59.864;30.464;2023-07-31T10:18:39;32.76;30.86
78366;HTU21D;67641;59.864;30.464;2023-07-31T10:23:43;33.38;29.58
78366;HTU21D;67641;59.864;30.464;2023-07-31T10:26:11;33.41;28.28
78366;HTU21D;67641;59.864;30.464;2023-07-31T10:50:57;32.75;32.69
78366;HTU21D;67641;59.864;30.464;2023-07-31T10:53:25;33.16;32.46
78366;HTU21D;67641;59.864;30.464;2023-07-31T10:55:53;33.77;32.10
78366;HTU21D;67641;59.864;30.464;2023-07-31T11:23:19;40.88;21.37
78366;HTU21D;67641;59.864;30.464;2023-07-31T11:25:46;39.69;22.43
78366;HTU21D;67641;59.864;30.464;2023-07-31T11:28:16;38.61;25.48
78366;HTU21D;67641;59.864;30.464;2023-07-31T11:30:44;40.33;22.86
78366;HTU21D;67641;59.864;30.464;2023-07-31T11:33:12;42.65;20.91
78366;HTU21D;67641;59.864;30.464;2023-07-31T11:35:49;40.62;22.92
78366;HTU21D;67641;59.864;30.464;2023-07-31T11:40:04;43.47;18.83
78366;HTU21D;67641;59.864;30.464;2023-07-31T11:42:31;45.16;17.83
78366;HTU21D;67641;59.864;30.464;2023-07-31T11:44:57;45.16;18.57
78366;HTU21D;67641;59.864;30.464;2023-07-31T11:47:25;41.96;22.89
78366;HTU21D;67641;59.864;30.464;2023-07-31T11:49:52;39.42;26.62
78366;HTU21D;67641;59.864;30.464;2023-07-31T11:52:19;37.70;29.85
78366;HTU21D;67641;59.864;30.464;2023-07-31T11:54:53;38.66;27.19
78366;HTU21D;67641;59.864;30.464;2023-07-31T11:59:55;44.44;20.12
78366;HTU21D;67641;59.864;30.464;2023-07-31T12:02:22;45.71;19.74
78366;HTU21D;67641;59.864;30.464;2023-07-31T12:04:49;44.85;21.45
78366;HTU21D;67641;59.864;30.464;2023-07-31T12:07:15;44.31;22.18
78366;HTU21D;67641;59.864;30.464;2023-07-31T12:09:53;43.71;23.00
78366;HTU21D;67641;59.864;30.464;2023-07-31T12:12:21;43.24;24.52
78366;HTU21D;67641;59.864;30.464;2023-07-31T12:14:53;42.82;25.53
78366;HTU21D;67641;59.864;30.464;2023-07-31T12:19:25;42.08;27.18
78366;HTU21D;67641;59.864;30.464;2023-07-31T12:21:59;41.50;26.53
78366;HTU21D;67641;59.864;30.464;2023-07-31T12:24:30;40.91;23.72
78366;HTU21D;67641;59.864;30.464;2023-07-31T12:26:56;40.87;24.30
78366;HTU21D;67641;59.864;30.464;2023-07-31T12:29:23;40.92;22.74
78366;HTU21D;67641;59.864;30.464;2023-07-31T12:31:50;40.91;22.95
78366;HTU21D;67641;59.864;30.464;2023-07-31T12:37:06;41.11;24.24
78366;HTU21D;67641;59.864;30.464;2023-07-31T12:39:35;40.90;23.03
78366;HTU21D;67641;59.864;30.464;2023-07-31T12:42:01;40.77;21.81
78366;HTU21D;67641;59.864;30.464;2023-07-31T12:44:27;40.45;23.33
78366;HTU21D;67641;59.864;30.464;2023-07-31T12:46:55;40.28;23.24
78366;HTU21D;67641;59.864;30.464;2023-07-31T12:49:22;39.99;24.09
78366;HTU21D;67641;59.864;30.464;2023-07-31T12:51:48;39.40;23.71
78366;HTU21D;67641;59.864;30.464;2023-07-31T12:58:02;38.73;25.62
78366;HTU21D;67641;59.864;30.464;2023-07-31T13:03:28;37.48;25.15
78366;HTU21D;67641;59.864;30.464;2023-07-31T13:05:56;37.00;27.22
78366;HTU21D;67641;59.864;30.464;2023-07-31T13:11:36;37.18;32.73
78366;HTU21D;67641;59.864;30.464;2023-07-31T13:16:39;37.41;34.63
78366;HTU21D;67641;59.864;30.464;2023-07-31T13:30:24;36.26;36.36
78366;HTU21D;67641;59.864;30.464;2023-07-31T13:32:51;36.52;36.53
78366;HTU21D;67641;59.864;30.464;2023-07-31T13:35:17;37.05;36.14
78366;HTU21D;67641;59.864;30.464;2023-07-31T13:37:43;37.13;35.51
78366;HTU21D;67641;59.864;30.464;2023-07-31T13:40:10;36.89;36.07
78366;HTU21D;67641;59.864;30.464;2023-07-31T13:42:36;36.83;35.89
78366;HTU21D;67641;59.864;30.464;2023-07-31T13:45:03;36.91;35.93
78366;HTU21D;67641;59.864;30.464;2023-07-31T13:47:29;36.83;35.40
78366;HTU21D;67641;59.864;30.464;2023-07-31T13:52:04;37.06;34.34
78366;HTU21D;67641;59.864;30.464;2023-07-31T13:54:30;37.11;31.64
78366;HTU21D;67641;59.864;30.464;2023-07-31T13:56:57;37.32;32.61
78366;HTU21D;67641;59.864;30.464;2023-07-31T13:59:23;37.64;30.71
78366;HTU21D;67641;59.864;30.464;2023-07-31T14:01:50;37.69;31.84
78366;HTU21D;67641;59.864;30.464;2023-07-31T14:04:17;37.78;31.00
78366;HTU21D;67641;59.864;30.464;2023-07-31T14:06:44;37.82;29.52
78366;HTU21D;67641;59.864;30.464;2023-07-31T14:11:24;37.29;27.65
78366;HTU21D;67641;59.864;30.464;2023-07-31T14:13:51;37.14;27.17
78366;HTU21D;67641;59.864;30.464;2023-07-31T14:16:17;37.06;26.21
78366;HTU21D;67641;59.864;30.464;2023-07-31T14:18:44;37.15;26.55
78366;HTU21D;67641;59.864;30.464;2023-07-31T14:21:12;37.44;25.14
78366;HTU21D;67641;59.864;30.464;2023-07-31T14:23:38;37.50;24.30
78366;HTU21D;67641;59.864;30.464;2023-07-31T14:26:04;37.52;28.00
78366;HTU21D;67641;59.864;30.464;2023-07-31T14:31:15;37.17;26.44
78366;HTU21D;67641;59.864;30.464;2023-07-31T14:33:42;37.13;28.65
78366;HTU21D;67641;59.864;30.464;2023-07-31T14:36:08;36.98;30.59
78366;HTU21D;67641;59.864;30.464;2023-07-31T14:38:35;36.71;32.89
78366;HTU21D;67641;59.864;30.464;2023-07-31T14:41:01;36.47;34.97
78366;HTU21D;67641;59.864;30.464;2023-07-31T14:43:27;36.24;36.25
78366;HTU21D;67641;59.864;30.464;2023-07-31T14:45:54;36.03;36.85
78366;HTU21D;67641;59.864;30.464;2023-07-31T14:48:23;35.67;39.48
78366;HTU21D;67641;59.864;30.464;2023-07-31T14:53:07;35.49;38.75
78366;HTU21D;67641;59.864;30.464;2023-07-31T14:55:34;35.53;37.26
78366;HTU21D;67641;59.864;30.464;2023-07-31T14:58:00;35.39;37.04
78366;HTU21D;67641;59.864;30.464;2023-07-31T15:00:26;35.27;35.54
78366;HTU21D;67641;59.864;30.464;2023-07-31T15:02:52;35.10;36.63
78366;HTU21D;67641;59.864;30.464;2023-07-31T15:05:19;34.83;37.72
78366;HTU21D;67641;59.864;30.464;2023-07-31T15:07:45;34.57;39.59
78366;HTU21D;67641;59.864;30.464;2023-07-31T15:10:11;34.53;39.16
78366;HTU21D;67641;59.864;30.464;2023-07-31T15:14:39;34.05;43.63
78366;HTU21D;67641;59.864;30.464;2023-07-31T15:17:05;33.90;45.37
78366;HTU21D;67641;59.864;30.464;2023-07-31T15:19:32;33.70;47.02
78366;HTU21D;67641;59.864;30.464;2023-07-31T15:22:02;33.65;46.98
78366;HTU21D;67641;59.864;30.464;2023-07-31T15:24:31;33.65;46.24
78366;HTU21D;67641;59.864;30.464;2023-07-31T15:26:57;33.67;46.10
78366;HTU21D;67641;59.864;30.464;2023-07-31T15:29:24;33.64;46.59
78366;HTU21D;67641;59.864;30.464;2023-07-31T15:31:50;33.70;45.86
78366;HTU21D;67641;59.864;30.464;2023-07-31T15:36:44;34.09;46.25
78366;HTU21D;67641;59.864;30.464;2023-07-31T15:39:10;34.18;48.21
78366;HTU21D;67641;59.864;30.464;2023-07-31T15:41:37;34.00;49.82
78366;HTU21D;67641;59.864;30.464;2023-07-31T15:44:05;33.81;50.83
78366;HTU21D;67641;59.864;30.464;2023-07-31T15:46:31;33.58;50.88
78366;HTU21D;67641;59.864;30.464;2023-07-31T15:48:57;33.29;51.40
78366;HTU21D;67641;59.864;30.464;2023-07-31T15:51:24;32.90;53.32
78366;HTU21D;67641;59.864;30.464;2023-07-31T15:53:51;32.82;53.71
78366;HTU21D;67641;59.864;30.464;2023-07-31T15:58:35;32.57;55.01
78366;HTU21D;67641;59.864;30.464;2023-07-31T16:01:03;32.49;56.07
78366;HTU21D;67641;59.864;30.464;2023-07-31T16:03:29;32.42;56.56
78366;HTU21D;67641;59.864;30.464;2023-07-31T16:05:55;32.19;57.58
78366;HTU21D;67641;59.864;30.464;2023-07-31T16:08:22;32.19;58.16
78366;HTU21D;67641;59.864;30.464;2023-07-31T16:10:49;32.25;57.98
78366;HTU21D;67641;59.864;30.464;2023-07-31T16:13:15;32.25;57.37
78366;HTU21D;67641;59.864;30.464;2023-07-31T16:15:42;32.14;58.12
78366;HTU21D;67641;59.864;30.464;2023-07-31T16:19:14;32.09;58.58
78366;HTU21D;67641;59.864;30.464;2023-07-31T16:21:40;31.95;58.92
78366;HTU21D;67641;59.864;30.464;2023-07-31T16:24:06;31.82;59.47
78366;HTU21D;67641;59.864;30.464;2023-07-31T16:26:34;31.55;60.56
78366;HTU21D;67641;59.864;30.464;2023-07-31T16:29:00;31.42;60.73
78366;HTU21D;67641;59.864;30.464;2023-07-31T16:31:31;31.31;61.00
78366;HTU21D;67641;59.864;30.464;2023-07-31T16:33:58;31.11;61.57
78366;HTU21D;67641;59.864;30.464;2023-07-31T16:38:44;31.09;60.98
78366;HTU21D;67641;59.864;30.464;2023-07-31T16:41:10;31.06;61.46
78366;HTU21D;67641;59.864;30.464;2023-07-31T16:43:37;31.10;61.89
78366;HTU21D;67641;59.864;30.464;2023-07-31T16:46:03;31.18;60.92
78366;HTU21D;67641;59.864;30.464;2023-07-31T16:48:29;31.25;60.90
78366;HTU21D;67641;59.864;30.464;2023-07-31T16:50:56;31.25;60.73
78366;HTU21D;67641;59.864;30.464;2023-07-31T16:53:22;31.29;60.31
78366;HTU21D;67641;59.864;30.464;2023-07-31T16:55:48;31.30;60.38
78366;HTU21D;67641;59.864;30.464;2023-07-31T17:29:59;30.97;56.45
78366;HTU21D;67641;59.864;30.464;2023-07-31T17:32:26;30.91;56.47
78366;HTU21D;67641;59.864;30.464;2023-07-31T17:34:56;30.86;56.63
78366;HTU21D;67641;59.864;30.464;2023-07-31T17:37:23;30.84;57.50
78366;HTU21D;67641;59.864;30.464;2023-07-31T17:39:56;30.82;54.49
78366;HTU21D;67641;59.864;30.464;2023-07-31T17:42:35;30.80;53.52
78366;HTU21D;67641;59.864;30.464;2023-07-31T17:47:08;30.59;55.20
78366;HTU21D;67641;59.864;30.464;2023-07-31T17:49:35;30.54;54.75
78366;HTU21D;67641;59.864;30.464;2023-07-31T17:52:02;30.46;55.23
78366;HTU21D;67641;59.864;30.464;2023-07-31T17:54:29;30.40;56.97
78366;HTU21D;67641;59.864;30.464;2023-07-31T17:56:56;30.19;58.35
78366;HTU21D;67641;59.864;30.464;2023-07-31T17:59:23;30.13;61.76
78366;HTU21D;67641;59.864;30.464;2023-07-31T18:01:50;30.11;62.79
78366;HTU21D;67641;59.864;30.464;2023-07-31T18:06:44;30.04;59.70
78366;HTU21D;67641;59.864;30.464;2023-07-31T18:09:11;30.07;61.59
78366;HTU21D;67641;59.864;30.464;2023-07-31T18:11:40;30.04;63.40
78366;HTU21D;67641;59.864;30.464;2023-07-31T18:14:06;30.02;63.78
78366;HTU21D;67641;59.864;30.464;2023-07-31T18:16:33;30.04;64.95
78366;HTU21D;67641;59.864;30.464;2023-07-31T18:19:00;30.00;65.06
78366;HTU21D;67641;59.864;30.464;2023-07-31T18:21:26;29.96;64.72
78366;HTU21D;67641;59.864;30.464;2023-07-31T18:23:53;29.94;65.03
78366;HTU21D;67641;59.864;30.464;2023-07-31T18:27:29;29.93;63.56
78366;HTU21D;67641;59.864;30.464;2023-07-31T18:29:58;29.91;62.63
78366;HTU21D;67641;59.864;30.464;2023-07-31T18:32:26;29.91;64.43
78366;HTU21D;67641;59.864;30.464;2023-07-31T18:34:53;29.86;64.11
78366;HTU21D;67641;59.864;30.464;2023-07-31T18:39:52;29.80;58.04
78366;HTU21D;67641;59.864;30.464;2023-07-31T18:42:23;29.73;58.64
78366;HTU21D;67641;59.864;30.464;2023-07-31T18:47:23;29.68;56.48
78366;HTU21D;67641;59.864;30.464;2023-07-31T18:49:50;29.72;55.74
78366;HTU21D;67641;59.864;30.464;2023-07-31T18:52:17;29.71;55.75
78366;HTU21D;67641;59.864;30.464;2023-07-31T18:54:44;29.66;54.73
78366;HTU21D;67641;59.864;30.464;2023-07-31T18:57:11;29.64;54.12
78366;HTU21D;67641;59.864;30.464;2023-07-31T18:59:39;29.64;52.77
78366;HTU21D;67641;59.864;30.464;2023-07-31T19:02:06;29.60;51.51
78366;HTU21D;67641;59.864;30.464;2023-07-31T19:04:33;29.59;51.34